createdAt,value
2022-09-11T00:04:18.442Z,3.60
2022-09-11T00:09:23.203Z,4.07
2022-09-11T00:14:30.591Z,3.70
2022-09-11T00:19:35.718Z,3.77
2022-09-11T00:24:41.353Z,3.47
2022-09-11T00:29:49.765Z,3.87
2022-09-11T00:34:54.588Z,3.20
2022-09-11T00:39:59.390Z,4.30
2022-09-11T00:45:10.209Z,3.30
2022-09-11T00:50:19.341Z,2.40
2022-09-11T00:55:28.617Z,2.47
2022-09-11T01:00:37.205Z,2.90
2022-09-11T01:05:44.617Z,2.50
2022-09-11T01:10:59.888Z,2.33
2022-09-11T01:16:15.955Z,2.70
2022-09-11T01:21:40.809Z,2.07
2022-09-11T01:27:07.433Z,2.40
2022-09-11T01:32:24.088Z,2.53
2022-09-11T01:37:38.237Z,2.60
2022-09-11T01:42:46.780Z,2.27
2022-09-11T01:47:55.887Z,2.10
2022-09-11T01:53:05.203Z,2.50
2022-09-11T01:58:13.741Z,2.30
2022-09-11T02:03:28.909Z,2.50
2022-09-11T02:08:42.078Z,2.33
2022-09-11T02:13:56.946Z,2.77
2022-09-11T02:19:08.482Z,2.70
2022-09-11T02:24:13.708Z,3.07
2022-09-11T02:29:19.060Z,3.10
2022-09-11T02:34:30.050Z,2.67
2022-09-11T02:39:55.482Z,2.90
2022-09-11T02:45:09.126Z,3.20
2022-09-11T02:50:26.151Z,3.20
2022-09-11T02:55:40.775Z,3.07
2022-09-11T03:00:48.304Z,3.30
2022-09-11T03:05:56.360Z,3.20
2022-09-11T03:11:08.964Z,2.97
2022-09-11T03:16:15.162Z,3.40
2022-09-11T03:21:23.251Z,2.97
2022-09-11T03:26:29.250Z,3.30
2022-09-11T03:31:39.124Z,3.23
2022-09-11T03:36:48.122Z,3.63
2022-09-11T03:41:54.291Z,3.40
2022-09-11T03:47:02.313Z,3.27
2022-09-11T03:52:09.694Z,3.90
2022-09-11T03:57:14.533Z,3.23
2022-09-11T04:02:19.686Z,3.33
2022-09-11T04:07:27.341Z,4.50
2022-09-11T04:12:32.441Z,4.20
2022-09-11T04:17:38.528Z,4.63
2022-09-11T04:22:46.558Z,4.60
2022-09-11T04:27:51.733Z,5.00
2022-09-11T04:32:56.666Z,4.57
2022-09-11T04:38:06.239Z,4.40
2022-09-11T04:43:13.248Z,5.87
2022-09-11T04:48:18.542Z,5.40
2022-09-11T04:53:26.098Z,4.70
2022-09-11T04:58:33.620Z,5.93
2022-09-11T05:03:42.512Z,6.43
2022-09-11T05:08:52.053Z,6.03
2022-09-11T05:13:59.160Z,6.10
2022-09-11T05:19:07.563Z,5.93
2022-09-11T05:24:15.564Z,6.47
2022-09-11T05:29:20.818Z,6.33
2022-09-11T05:34:32.435Z,6.20
2022-09-11T05:39:40.427Z,6.17
2022-09-11T05:44:47.379Z,6.60
2022-09-11T05:49:53.481Z,6.03
2022-09-11T05:55:01.392Z,6.47
2022-09-11T06:00:09.752Z,6.00
2022-09-11T06:05:27.856Z,7.10
2022-09-11T06:10:37.765Z,7.40
2022-09-11T06:15:47.765Z,7.10
2022-09-11T06:21:00.313Z,8.67
2022-09-11T06:26:11.734Z,8.60
2022-09-11T06:31:21.036Z,8.53
2022-09-11T06:36:30.089Z,9.40
2022-09-11T06:41:39.144Z,10.17
2022-09-11T06:46:49.475Z,10.17
2022-09-11T06:51:55.611Z,10.80
2022-09-11T06:57:03.100Z,11.10
2022-09-11T07:02:08.251Z,12.03
2022-09-11T07:07:14.024Z,11.27
2022-09-11T07:12:24.063Z,11.13
2022-09-11T07:17:31.878Z,11.37
2022-09-11T07:22:37.232Z,10.77
2022-09-11T07:27:45.806Z,8.77
2022-09-11T07:32:52.716Z,10.20
2022-09-11T07:37:57.630Z,10.03
2022-09-11T07:43:07.119Z,9.80
2022-09-11T07:48:13.201Z,9.87
2022-09-11T07:53:27.148Z,10.77
2022-09-11T07:58:38.239Z,10.67
2022-09-11T08:03:44.461Z,11.87
2022-09-11T08:08:50.164Z,13.00
2022-09-11T08:13:59.280Z,13.27
2022-09-11T08:19:04.289Z,14.60
2022-09-11T08:24:11.959Z,14.23
2022-09-11T08:29:21.564Z,14.83
2022-09-11T08:34:27.648Z,14.40
2022-09-11T08:39:33.001Z,15.43
2022-09-11T08:44:49.596Z,17.33
2022-09-11T08:50:04.973Z,17.93
2022-09-11T08:55:16.211Z,18.20
2022-09-11T09:00:30.111Z,18.63
2022-09-11T09:05:48.385Z,19.47
2022-09-11T09:10:56.225Z,19.73
2022-09-11T09:16:20.965Z,23.97
2022-09-11T09:21:33.072Z,23.13
2022-09-11T09:26:41.839Z,23.60
2022-09-11T09:31:53.277Z,24.37
2022-09-11T09:37:04.467Z,25.37
2022-09-11T09:42:44.718Z,22.17
2022-09-11T09:47:54.119Z,24.87
2022-09-11T09:53:06.915Z,21.83
2022-09-11T09:58:11.761Z,20.70
2022-09-11T10:03:24.345Z,21.73
2022-09-11T10:08:33.739Z,21.90
2022-09-11T10:13:43.020Z,21.93
2022-09-11T10:18:50.484Z,23.50
2022-09-11T10:23:58.111Z,21.70
2022-09-11T10:29:15.850Z,21.07
2022-09-11T10:34:26.214Z,20.97
2022-09-11T10:39:34.016Z,20.80
2022-09-11T10:44:39.043Z,19.80
2022-09-11T10:49:47.308Z,18.97
2022-09-11T10:55:04.184Z,17.97
2022-09-11T11:00:20.248Z,17.23
2022-09-11T11:05:33.349Z,18.23
2022-09-11T11:10:47.792Z,18.93
2022-09-11T11:16:07.626Z,19.43
2022-09-11T11:21:27.483Z,16.97
2022-09-11T11:26:43.462Z,18.27
2022-09-11T11:32:05.300Z,17.40
2022-09-11T11:37:16.322Z,18.13
2022-09-11T11:42:28.360Z,15.87
2022-09-11T11:47:37.040Z,13.40
2022-09-11T11:52:57.025Z,14.17
2022-09-11T11:58:09.574Z,13.93
2022-09-11T12:03:21.917Z,15.13
2022-09-11T12:08:29.342Z,15.20
2022-09-11T12:13:38.733Z,15.70
2022-09-11T12:18:45.159Z,15.70
2022-09-11T12:24:24.684Z,15.13
2022-09-11T12:29:59.492Z,15.00
2022-09-11T12:35:22.946Z,14.37
2022-09-11T12:40:37.725Z,14.37
2022-09-11T12:45:43.850Z,12.67
2022-09-11T12:50:54.269Z,12.47
2022-09-11T12:56:08.139Z,12.80
2022-09-11T13:01:19.973Z,10.70
2022-09-11T13:06:25.925Z,10.97
2022-09-11T13:11:44.904Z,9.37
2022-09-11T13:16:53.168Z,9.70
2022-09-11T13:21:58.177Z,8.83
2022-09-11T13:27:10.436Z,8.33
2022-09-11T13:32:19.082Z,8.47
2022-09-11T13:37:37.469Z,8.40
2022-09-11T13:42:45.166Z,7.60
2022-09-11T13:47:49.919Z,7.63
2022-09-11T13:52:56.914Z,6.80
2022-09-11T13:58:06.728Z,7.17
2022-09-11T14:03:21.086Z,7.47
2022-09-11T14:08:32.679Z,6.40
2022-09-11T14:13:47.402Z,5.83
2022-09-11T14:18:56.003Z,5.43
2022-09-11T14:24:02.489Z,4.87
2022-09-11T14:29:25.255Z,6.03
2022-09-11T14:34:31.163Z,4.97
2022-09-11T14:39:39.836Z,5.40
2022-09-11T14:44:47.889Z,5.20
2022-09-11T14:49:54.868Z,4.73
2022-09-11T14:55:00.107Z,5.30
2022-09-11T15:00:08.788Z,5.30
2022-09-11T15:05:18.719Z,5.23
2022-09-11T15:10:23.889Z,5.90
2022-09-11T15:15:31.658Z,5.77
2022-09-11T15:20:36.612Z,5.17
2022-09-11T15:25:41.586Z,5.20
2022-09-11T15:31:00.079Z,5.00
2022-09-11T15:36:06.868Z,5.00
2022-09-11T15:41:11.997Z,5.10
2022-09-11T15:46:22.903Z,6.23
2022-09-11T15:51:27.966Z,5.20
2022-09-11T15:56:36.195Z,5.87
2022-09-11T16:01:44.651Z,5.00
2022-09-11T16:06:51.086Z,5.77
2022-09-11T16:11:57.015Z,5.23
2022-09-11T16:17:05.927Z,5.27
2022-09-11T16:22:11.437Z,5.73
2022-09-11T16:27:16.408Z,6.13
2022-09-11T16:32:37.467Z,6.57
2022-09-11T16:37:42.387Z,5.73
2022-09-11T16:42:47.135Z,5.60
2022-09-11T16:47:54.707Z,5.63
2022-09-11T16:53:00.069Z,5.97
2022-09-11T16:58:06.972Z,5.43
2022-09-11T17:03:14.800Z,5.57
2022-09-11T17:08:21.493Z,6.00
2022-09-11T17:13:28.733Z,5.97
2022-09-11T17:18:37.072Z,5.43
2022-09-11T17:23:42.089Z,5.77
2022-09-11T17:28:49.709Z,5.60
2022-09-11T17:33:57.032Z,5.50
2022-09-11T17:39:02.308Z,6.13
2022-09-11T17:44:07.094Z,5.90
2022-09-11T17:49:14.676Z,6.47
2022-09-11T17:54:19.680Z,7.30
2022-09-11T17:59:24.594Z,7.87
2022-09-11T18:04:32.195Z,7.93
2022-09-11T18:09:37.115Z,9.10
2022-09-11T18:14:43.497Z,8.87
2022-09-11T18:19:54.291Z,7.83
2022-09-11T18:24:59.874Z,7.43
2022-09-11T18:30:05.553Z,6.13
2022-09-11T18:35:13.375Z,6.40
2022-09-11T18:40:20.806Z,5.50
2022-09-11T18:45:26.287Z,5.30
2022-09-11T18:50:34.532Z,6.40
2022-09-11T18:55:39.361Z,5.73
2022-09-11T19:00:44.464Z,5.37
2022-09-11T19:05:53.474Z,5.93
2022-09-11T19:11:00.241Z,5.77
2022-09-11T19:16:06.149Z,6.27
2022-09-11T19:21:16.521Z,5.97
2022-09-11T19:26:23.106Z,6.30
2022-09-11T19:31:30.805Z,6.37
2022-09-11T19:36:39.344Z,5.97
2022-09-11T19:41:44.390Z,5.90
2022-09-11T19:46:53.760Z,6.93
2022-09-11T19:52:01.740Z,7.90
2022-09-11T19:57:07.638Z,8.93
2022-09-11T20:02:14.109Z,8.60
2022-09-11T20:07:21.539Z,8.00
2022-09-11T20:12:26.560Z,10.27
2022-09-11T20:17:31.599Z,10.83
2022-09-11T20:22:39.312Z,10.03
2022-09-11T20:27:45.726Z,10.40
2022-09-11T20:32:53.086Z,9.63
2022-09-11T20:38:01.861Z,9.93
2022-09-11T20:43:06.585Z,11.17
2022-09-11T20:48:11.504Z,9.80
2022-09-11T20:53:18.816Z,10.40
2022-09-11T20:58:23.853Z,10.77
2022-09-11T21:03:29.258Z,11.27
2022-09-11T21:08:36.774Z,10.90
2022-09-11T21:13:43.428Z,10.30
2022-09-11T21:18:50.291Z,10.20
2022-09-11T21:23:59.514Z,11.07
2022-09-11T21:29:06.554Z,11.23
2022-09-11T21:34:12.347Z,10.60
2022-09-11T21:39:21.635Z,11.27
2022-09-11T21:44:27.624Z,11.23
2022-09-11T21:49:33.094Z,11.20
2022-09-11T21:54:40.823Z,11.23
2022-09-11T21:59:47.793Z,11.67
2022-09-11T22:04:53.190Z,10.93
2022-09-11T22:10:01.510Z,10.90
2022-09-11T22:15:06.899Z,10.73
2022-09-11T22:20:14.295Z,11.17
2022-09-11T22:25:21.677Z,10.83
2022-09-11T22:30:28.176Z,11.50
2022-09-11T22:35:37.341Z,12.10
2022-09-11T22:40:47.896Z,11.57
2022-09-11T22:45:54.359Z,11.10
2022-09-11T22:50:59.722Z,12.20
2022-09-11T22:56:07.902Z,12.07
2022-09-11T23:01:19.672Z,11.17
2022-09-11T23:06:39.159Z,11.37
2022-09-11T23:11:47.953Z,12.33
2022-09-11T23:16:52.786Z,11.80
2022-09-11T23:21:57.977Z,12.17
2022-09-11T23:27:06.678Z,12.70
2022-09-11T23:32:11.439Z,13.23
2022-09-11T23:37:19.097Z,12.73
2022-09-11T23:42:34.470Z,12.33
2022-09-11T23:47:39.356Z,11.97
2022-09-11T23:52:44.059Z,12.73
2022-09-11T23:57:55.287Z,12.13
